Data for 10/06/2005

Time Sea-Level Adjusted Pressure Absolute Pressure Temperature Relative Humidity Dew Point   
(mb) (inHg) (mb) (inHg) (C) (F) (%) (C) (F)
00:05 1025 30.27 854 25.22 1.4 34.5 86 -0.7 30.7
00:10 1025 30.27 855 25.25 1.4 34.6 84 -0.9 30.4
00:15 1025 30.27 855 25.25 1.6 34.8 85 -0.7 30.7
00:20 1025 30.27 855 25.25 1.4 34.5 85 -0.9 30.5
00:25 1025 30.27 855 25.25 1.4 34.5 85 -0.9 30.4
00:30 1025 30.27 855 25.25 1.3 34.3 85 -0.9 30.3
00:35 1025 30.27 855 25.25 1.2 34.2 86 -0.9 30.3
00:40 1026 30.3 855 25.25 1.1 33.9 86 -1 30.2
00:45 1026 30.3 855 25.25 0.9 33.7 87 -1 30.2
00:50 1026 30.3 855 25.25 0.9 33.6 87 -1 30.1
00:55 1026 30.3 855 25.25 0.8 33.4 87 -1.1 30
01:00 1026 30.3 855 25.25 0.7 33.3 87 -1.1 30
01:05 1025 30.27 855 25.25 0.8 33.4 87 -1.2 29.9
01:10 1025 30.27 855 25.25 0.8 33.5 88 -1 30.2
01:15 1025 30.27 854 25.22 0.7 33.3 87 -1.2 29.8
01:20 1025 30.27 854 25.22 0.6 33.1 86 -1.4 29.5
01:25 1025 30.27 854 25.22 0.6 33.1 87 -1.4 29.5
01:30 1025 30.27 854 25.22 0.6 33.1 86 -1.5 29.4
01:35 1025 30.27 854 25.22 0.7 33.2 86 -1.5 29.4
01:40 1025 30.27 854 25.22 0.6 33.1 86 -1.4 29.4
01:45 1025 30.27 854 25.22 0.5 32.9 87 -1.5 29.3
01:50 1025 30.27 854 25.22 0.5 32.9 86 -1.5 29.3
01:55 1025 30.27 854 25.22 0.4 32.6 87 -1.5 29.2
02:00 1025 30.27 854 25.22 0.2 32.4 87 -1.7 29
02:05 1025 30.27 854 25.22 -0 31.9 88 -1.8 28.8
02:10 1025 30.27 854 25.22 -0.3 31.5 89 -1.8 28.7
02:15 1025 30.27 854 25.22 -0.4 31.4 90 -1.9 28.7
02:20 1025 30.27 854 25.22 -0.3 31.5 90 -1.8 28.8
02:25 1025 30.27 854 25.22 -0.1 31.8 89 -1.8 28.8
02:30 1025 30.27 854 25.22 -0.2 31.7 89 -1.8 28.7
02:35 1025 30.27 854 25.22 -0.3 31.4 89 -1.9 28.5
02:40 1025 30.27 854 25.22 -0.3 31.4 88 -2.1 28.3
02:45 1025 30.27 854 25.22 -0.1 31.8 88 -1.9 28.5
02:50 1025 30.27 854 25.22 0.2 32.3 87 -1.8 28.8
02:55 1025 30.27 854 25.22 0.3 32.6 86 -1.7 28.9
03:00 1025 30.27 854 25.22 0.4 32.8 86 -1.6 29.1
03:05 1025 30.27 854 25.22 0.3 32.5 86 -1.7 28.9
03:10 1025 30.27 854 25.22 0.2 32.4 86 -1.8 28.8
03:15 1025 30.27 854 25.22 0.2 32.4 86 -1.9 28.7
03:20 1025 30.27 854 25.22 0.1 32.2 86 -2 28.4
03:25 1025 30.27 854 25.22 0 32.1 86 -2 28.4
03:30 1025 30.27 854 25.22 -0.1 31.8 86 -2.1 28.2
03:35 1025 30.27 854 25.22 -0.1 31.8 86 -2.2 28.1
03:40 1025 30.27 854 25.22 -0.1 31.9 86 -2.2 28.1
03:45 1025 30.27 854 25.22 -0.2 31.7 86 -2.2 28
03:50 1025 30.27 854 25.22 -0.2 31.6 86 -2.2 28
03:55 1024 30.24 854 25.22 -0.1 31.8 86 -2.2 28.1
04:00 1024 30.24 854 25.22 -0.3 31.5 84 -2.7 27.2
04:05 1024 30.24 854 25.22 -0 31.9 84 -2.5 27.5
04:10 1024 30.24 854 25.22 0.2 32.3 82 -2.5 27.4
04:15 1024 30.24 853 25.19 0.2 32.4 83 -2.4 27.8
04:20 1024 30.24 853 25.19 0 32 84 -2.3 27.8
04:25 1024 30.24 853 25.19 -0.3 31.5 86 -2.3 27.8
04:30 1024 30.24 853 25.19 -0.3 31.4 86 -2.4 27.6
04:35 1024 30.24 853 25.19 -0.3 31.4 86 -2.4 27.6
04:40 1024 30.24 853 25.19 -0.2 31.7 85 -2.3 27.8
04:45 1024 30.24 853 25.19 0 32.1 84 -2.3 27.8
04:50 1024 30.24 853 25.19 0.1 32.1 84 -2.2 28
04:55 1024 30.24 853 25.19 -0.1 31.9 85 -2.3 27.9
05:00 1024 30.24 853 25.19 -0.1 31.7 86 -2.3 27.9
05:05 1024 30.24 853 25.19 -0.2 31.6 85 -2.4 27.7
05:10 1024 30.24 853 25.19 -0.2 31.6 85 -2.5 27.5
05:15 1024 30.24 853 25.19 -0.5 31.2 85 -2.7 27.2
05:20 1024 30.24 853 25.19 -0.5 31.1 85 -2.7 27.2
05:25 1024 30.24 853 25.19 -0.4 31.3 85 -2.7 27.2
05:30 1024 30.24 853 25.19 -0.2 31.6 84 -2.6 27.3
05:35 1024 30.24 853 25.19 -0.3 31.5 84 -2.7 27.1
05:40 1024 30.24 853 25.19 -0.4 31.3 84 -2.8 27
05:45 1024 30.24 853 25.19 -0.4 31.3 84 -2.8 26.9
05:50 1024 30.24 853 25.19 -0.4 31.3 83 -2.9 26.8
05:55 1024 30.24 853 25.19 -0.4 31.2 85 -2.7 27.1
06:00 1024 30.24 853 25.19 -0.7 30.8 85 -2.9 26.8
06:05 1024 30.24 853 25.19 -0.7 30.7 85 -2.9 26.7
06:10 1024 30.24 853 25.19 -0.7 30.7 85 -3 26.6
06:15 1024 30.24 853 25.19 -0.5 31.1 84 -2.9 26.8
06:20 1024 30.24 853 25.19 -0.4 31.3 83 -3 26.6
06:25 1024 30.24 853 25.19 -0.2 31.7 82 -2.9 26.8
06:30 1024 30.24 853 25.19 -0.2 31.6 82 -2.9 26.8
06:35 1024 30.24 853 25.19 -0.1 31.8 82 -2.8 27
06:40 1024 30.24 853 25.19 -0 32 81 -2.9 26.8
06:45 1024 30.24 853 25.19 -0 32 82 -2.7 27.1
06:50 1024 30.24 853 25.19 -0.3 31.5 83 -2.9 26.8
06:55 1024 30.24 853 25.19 -0.3 31.5 83 -2.9 26.9
07:00 1024 30.24 853 25.19 -0.6 31 84 -2.9 26.8
07:05 1024 30.24 853 25.19 -0.9 30.4 85 -3.1 26.5
07:10 1024 30.24 853 25.19 -0.9 30.4 85 -3.1 26.4
07:15 1023 30.21 853 25.19 -0.8 30.5 84 -3.2 26.3
07:20 1023 30.21 853 25.19 -0.9 30.4 85 -3.1 26.4
07:25 1023 30.21 853 25.19 -0.9 30.3 85 -3.1 26.4
07:30 1023 30.21 853 25.19 -0.7 30.7 84 -3.1 26.4
07:35 1023 30.21 853 25.19 -0.6 30.9 83 -3.1 26.4
07:40 1023 30.21 852 25.16 -0.4 31.3 82 -3 26.5
07:45 1023 30.21 852 25.16 -0.3 31.4 82 -3 26.5
07:50 1023 30.21 852 25.16 -0.2 31.7 81 -3.1 26.4
07:55 1023 30.21 852 25.16 -0.1 31.7 81 -3 26.5
08:00 1023 30.21 852 25.16 -0.2 31.7 81 -3.1 26.4
08:05 1023 30.21 852 25.16 -0 32 79 -3.2 26.2
08:10 1023 30.21 853 25.19 0.2 32.4 79 -3 26.5
08:15 1023 30.21 853 25.19 0.3 32.5 78 -3.1 26.5
08:20 1023 30.21 853 25.19 -0 32 79 -3.2 26.2
08:25 1023 30.21 853 25.19 -0.1 31.7 79 -3.3 26
08:30 1023 30.21 853 25.19 0.1 32.2 78 -3.3 26
08:35 1023 30.21 853 25.19 0.4 32.6 77 -3.2 26.2
08:40 1023 30.21 853 25.19 0.5 32.9 77 -3.2 26.3
08:45 1023 30.21 853 25.19 0.8 33.4 75 -3.1 26.4
08:50 1023 30.21 853 25.19 1.1 33.9 74 -3 26.6
08:55 1023 30.21 853 25.19 1.2 34.1 73 -3.1 26.4
09:00 1023 30.21 853 25.19 1.4 34.4 73 -3 26.7
09:05 1024 30.24 853 25.19 1.8 35.2 69 -3.2 26.2
09:10 1024 30.24 853 25.19 2.1 35.8 69 -3 26.6
09:15 1024 30.24 853 25.19 2.6 36.7 67 -2.8 26.9
09:20 1024 30.24 853 25.19 2.8 37 67 -2.7 27.1
09:25 1024 30.24 853 25.19 3.1 37.6 66 -2.7 27.1
09:30 1024 30.24 853 25.19 3.8 38.8 65 -2.3 27.9
09:35 1024 30.24 853 25.19 4.4 39.9 62 -2.1 28.1
09:40 1024 30.24 853 25.19 4.4 39.9 62 -2.3 27.9
09:45 1024 30.24 853 25.19 4.4 40 61 -2.5 27.5
09:50 1024 30.24 853 25.19 4.7 40.4 63 -1.8 28.7
09:55 1024 30.24 853 25.19 4.4 40 62 -2.2 28.1
10:00 1024 30.24 853 25.19 4.9 40.8 64 -1.3 29.6
10:05 1024 30.24 853 25.19 5.4 41.7 59 -2 28.5
10:10 1023 30.21 853 25.19 5.3 41.6 59 -2 28.3
10:15 1023 30.21 853 25.19 5.9 42.7 60 -1.2 29.8
10:20 1023 30.21 853 25.19 6.8 44.3 57 -1.1 30
10:25 1023 30.21 853 25.19 7.2 45 55 -1.3 29.7
10:30 1023 30.21 853 25.19 7.2 44.9 57 -0.7 30.8
10:35 1023 30.21 853 25.19 6.8 44.3 59 -0.7 30.7
10:40 1023 30.21 853 25.19 6.8 44.3 57 -1 30.1
10:45 1023 30.21 852 25.16 6.7 44.1 55 -1.6 29.2
10:50 1023 30.21 853 25.19 6.9 44.5 55 -1.4 29.4
10:55 1023 30.21 853 25.19 7 44.5 57 -1 30.1
11:00 1023 30.21 852 25.16 7.3 45.1 51 -2.3 27.9
11:05 1023 30.21 852 25.16 7.8 46 51 -1.8 28.7
11:10 1023 30.21 852 25.16 7.3 45.1 54 -1.3 29.7
11:15 1023 30.21 852 25.16 7.8 46 56 -0.4 31.3
11:20 1023 30.21 852 25.16 7.8 46 54 -0.8 30.5
11:25 1023 30.21 852 25.16 8.3 47 52 -1 30.3
11:30 1023 30.21 852 25.16 8.4 47.1 52 -0.8 30.5
11:35 1023 30.21 852 25.16 8.8 47.8 50 -1.1 29.9
11:40 1023 30.21 852 25.16 8.9 48 50 -0.9 30.4
11:45 1023 30.21 852 25.16 9 48.3 49 -1.1 30.1
11:50 1023 30.21 852 25.16 9.3 48.7 49 -0.7 30.7
11:55 1023 30.21 852 25.16 8.9 48 49 -1.3 29.7
12:00 1023 30.21 852 25.16 9.2 48.5 49 -1 30.2
12:05 1023 30.21 852 25.16 10 50 47 -0.9 30.4
12:10 1023 30.21 852 25.16 10.5 50.9 46 -0.6 30.9
12:15 1023 30.21 852 25.16 11.1 52 43 -1 30.2
12:20 1023 30.21 852 25.16 11.2 52.2 42 -1 30.1
12:25 1023 30.21 852 25.16 11.6 52.9 41 -1.3 29.7
12:30 1022 30.18 852 25.16 12 53.5 40 -1.2 29.8
12:35 1022 30.18 852 25.16 11.4 52.4 42 -1 30.3
12:40 1022 30.18 851 25.13 11 51.9 43 -1 30.2
12:45 1022 30.18 851 25.13 10.7 51.3 46 -0.4 31.3
12:50 1022 30.18 851 25.13 10.6 51.1 45 -0.7 30.7
12:55 1022 30.18 851 25.13 10.5 51 45 -0.8 30.5
13:00 1022 30.18 851 25.13 10.1 50.1 46 -0.9 30.4
13:05 1022 30.18 851 25.13 10.8 51.4 43 -1.1 30
13:10 1022 30.18 851 25.13 11.2 52.2 44 -0.5 31.1
13:15 1022 30.18 851 25.13 11.6 52.9 43 -0.6 31
13:20 1022 30.18 851 25.13 11.1 51.9 44 -0.7 30.8
13:25 1022 30.18 851 25.13 11.4 52.4 43 -0.7 30.8
13:30 1022 30.18 851 25.13 11.8 53.2 44 0.1 32.1
13:35 1021 30.15 851 25.13 11 51.8 46 -0.1 31.9
13:40 1021 30.15 851 25.13 11.7 53 41 -1.1 30.1
13:45 1021 30.15 851 25.13 12.5 54.5 41 -0.5 31.1
13:50 1021 30.15 850 25.1 13 55.3 39 -0.8 30.6
13:55 1021 30.15 850 25.1 13.4 56 36 -1.2 29.9
14:00 1021 30.15 850 25.1 13.3 56 37 -1 30.2
14:05 1021 30.15 850 25.1 13.3 56 36 -1.5 29.2
14:10 1021 30.15 850 25.1 13.8 56.8 37 -0.6 31
14:15 1021 30.15 850 25.1 13.7 56.7 36 -1 30.1
14:20 1021 30.15 850 25.1 13.6 56.5 36 -1.2 29.8
14:25 1021 30.15 850 25.1 13.4 56.1 37 -1 30.2
14:30 1021 30.15 850 25.1 13.6 56.4 36 -1.1 30.1
14:35 1020 30.12 850 25.1 13.7 56.6 36 -1 30.2
14:40 1020 30.12 850 25.1 13.8 56.8 35 -1.2 29.9
14:45 1020 30.12 850 25.1 14.2 57.5 36 -0.7 30.7
14:50 1020 30.12 849 25.07 13.7 56.6 38 -0.3 31.4
14:55 1020 30.12 849 25.07 12.9 55.3 39 -0.7 30.8
15:00 1020 30.12 849 25.07 13.7 56.6 37 -0.6 31
15:05 1020 30.12 849 25.07 13.9 56.9 37 -0.5 31.2
15:10 1020 30.12 849 25.07 13.8 56.8 37 -0.8 30.6
15:15 1020 30.12 849 25.07 14 57.2 36 -0.9 30.3
15:20 1020 30.12 849 25.07 13.8 56.8 36 -0.8 30.5
15:25 1020 30.12 849 25.07 14.3 57.7 35 -0.9 30.4
15:30 1020 30.12 849 25.07 14.7 58.4 35 -0.6 30.9
15:35 1020 30.12 849 25.07 14.7 58.4 36 -0.1 31.9
15:40 1020 30.12 849 25.07 14.7 58.4 37 0.1 32.2
15:45 1020 30.12 849 25.07 14.6 58.2 37 0.2 32.4
15:50 1020 30.12 849 25.07 14.6 58.3 38 0.4 32.7
15:55 1020 30.12 849 25.07 14.2 57.6 38 0.1 32.2
16:00 1020 30.12 849 25.07 14.1 57.3 38 0.2 32.3
16:05 1020 30.12 849 25.07 13.9 56.9 38 -0.3 31.5
16:10 1020 30.12 849 25.07 14.7 58.5 35 -0.4 31.3
16:15 1019 30.09 849 25.07 15.2 59.3 36 0.5 32.8
16:20 1019 30.09 849 25.07 15.3 59.5 37 0.7 33.2
16:25 1019 30.09 849 25.07 14.9 58.8 39 1 33.8
16:30 1019 30.09 848 25.04 15 59 37 0.5 32.9
16:35 1019 30.09 848 25.04 15.4 59.7 35 -0.1 31.9
16:40 1019 30.09 848 25.04 15.5 60 34 -0.2 31.7
16:45 1019 30.09 848 25.04 15.4 59.6 34 -0.2 31.6
16:50 1019 30.09 848 25.04 15.1 59.2 36 0.2 32.4
16:55 1019 30.09 848 25.04 14.4 57.9 36 -0.2 31.6
17:00 1019 30.09 848 25.04 14.4 58 36 -0.4 31.3
17:05 1019 30.09 848 25.04 14.2 57.5 38 0.1 32.1
17:10 1019 30.09 848 25.04 14.3 57.8 37 -0.1 31.8
17:15 1019 30.09 848 25.04 14.4 57.9 36 -0.4 31.3
17:20 1019 30.09 848 25.04 14.1 57.4 38 0.1 32.2
17:25 1019 30.09 848 25.04 13.9 57 38 -0.1 31.9
17:30 1019 30.09 848 25.04 13.6 56.5 40 0.5 32.9
17:35 1018 30.06 848 25.04 13.7 56.6 40 0.2 32.4
17:40 1018 30.06 848 25.04 13.8 56.8 39 0.3 32.5
17:45 1018 30.06 848 25.04 13.7 56.6 40 0.3 32.5
17:50 1018 30.06 848 25.04 13.9 56.9 39 0.4 32.6
17:55 1018 30.06 848 25.04 13.5 56.3 41 0.5 32.9
18:00 1018 30.06 847 25.01 13.1 55.5 41 0.2 32.4
18:05 1018 30.06 847 25.01 12.9 55.2 42 0.5 32.8
18:10 1018 30.06 847 25.01 12.9 55.3 45 1.2 34.2
18:15 1018 30.06 847 25.01 12.7 54.8 47 1.8 35.2
18:20 1018 30.06 847 25.01 12.1 53.9 47 1.3 34.4
18:25 1018 30.06 847 25.01 12.1 53.8 48 1.6 34.9
18:30 1018 30.06 847 25.01 11.9 53.4 49 1.6 34.9
18:35 1018 30.06 847 25.01 11.7 53.1 54 2.7 36.8
18:40 1018 30.06 847 25.01 11.2 52.1 58 3.3 38
18:45 1018 30.06 847 25.01 10.6 51.1 63 3.8 38.9
18:50 1018 30.06 847 25.01 10.3 50.5 65 3.9 39.1
18:55 1018 30.06 847 25.01 9.5 49 69 4 39.2
19:00 1018 30.06 847 25.01 9 48.2 69 3.7 38.7
19:05 1018 30.06 847 25.01 8.8 47.9 70 3.6 38.5
19:10 1017 30.03 847 25.01 8.8 47.9 69 3.5 38.3
19:15 1017 30.03 847 25.01 8.6 47.4 71 3.6 38.5
19:20 1017 30.03 847 25.01 8.1 46.5 72 3.4 38.2
19:25 1017 30.03 847 25.01 7.8 46 72 3 37.5
19:30 1017 30.03 847 25.01 7.9 46.2 69 2.6 36.7
19:35 1017 30.03 847 25.01 8.1 46.5 67 2.4 36.3
19:40 1017 30.03 847 25.01 7.9 46.2 68 2.5 36.4
19:45 1017 30.03 847 25.01 7.7 45.8 68 2.2 36
19:50 1017 30.03 847 25.01 7.8 46 68 2.3 36.1
19:55 1017 30.03 847 25.01 7.9 46.2 67 2.3 36.1
20:00 1017 30.03 847 25.01 7.8 46 68 2.4 36.2
20:05 1017 30.03 846 24.98 7.6 45.8 68 2.2 36
20:10 1017 30.03 846 24.98 7.5 45.5 70 2.3 36.2
20:15 1017 30.03 846 24.98 7.4 45.3 69 2.1 35.8
20:20 1017 30.03 846 24.98 7.5 45.5 68 1.9 35.5
20:25 1017 30.03 846 24.98 7.5 45.6 68 2 35.5
20:30 1017 30.03 846 24.98 7.6 45.7 67 1.9 35.4
20:35 1017 30.03 846 24.98 7.8 46 65 1.7 35.1
20:40 1017 30.03 846 24.98 7.9 46.3 64 1.6 35
20:45 1017 30.03 846 24.98 8 46.3 64 1.6 34.8
20:50 1017 30.03 846 24.98 7.9 46.3 64 1.6 34.9
20:55 1017 30.03 846 24.98 7.9 46.1 64 1.5 34.6
21:00 1017 30.03 846 24.98 7.8 46 64 1.4 34.5
21:05 1017 30.03 846 24.98 7.9 46.2 64 1.5 34.6
21:10 1017 30.03 846 24.98 7.9 46.2 63 1.3 34.3
21:15 1017 30.03 846 24.98 7.8 46.1 63 1.2 34.2
21:20 1017 30.03 846 24.98 7.7 45.9 63 1.2 34.2
21:25 1017 30.03 846 24.98 7.8 46 63 1.2 34.1
21:30 1017 30.03 846 24.98 7.9 46.1 61 0.9 33.6
21:35 1017 30.03 846 24.98 7.9 46.3 61 0.9 33.7
21:40 1017 30.03 846 24.98 7.9 46.2 61 0.9 33.6
21:45 1017 30.03 846 24.98 7.7 45.9 62 1 33.8
21:50 1017 30.03 846 24.98 7.6 45.7 63 1 33.8
21:55 1016 30 846 24.98 7.4 45.4 63 0.9 33.5
22:00 1016 30 846 24.98 7.4 45.4 63 0.8 33.4
22:05 1016 30 846 24.98 7.4 45.3 63 0.8 33.4
22:10 1016 30 846 24.98 7.4 45.2 63 0.7 33.3
22:15 1016 30 846 24.98 7.4 45.3 62 0.6 33.2
22:20 1016 30 845 24.95 7.3 45.1 63 0.7 33.3
22:25 1016 30 845 24.95 7.2 44.9 63 0.7 33.2
22:30 1016 30 845 24.95 7.1 44.7 64 0.7 33.2
22:35 1016 30 845 24.95 7.3 45.1 62 0.5 32.9
22:40 1016 30 845 24.95 7.2 45 63 0.6 33
22:45 1016 30 845 24.95 7.1 44.9 61 0.2 32.4
22:50 1016 30 845 24.95 7 44.6 63 0.4 32.8
22:55 1016 30 845 24.95 7 44.6 62 0.2 32.4
23:00 1016 30 845 24.95 7.1 44.8 62 0.3 32.6
23:05 1016 30 845 24.95 6.9 44.4 62 0.3 32.5
23:10 1016 30 845 24.95 6.8 44.3 62 0.1 32.3
23:15 1016 30 845 24.95 6.9 44.5 61 -0.1 31.8
23:20 1016 30 845 24.95 7.1 44.7 60 -0.1 31.9
23:25 1016 30 845 24.95 7.2 44.9 60 -0.1 31.9
23:30 1016 30 845 24.95 7 44.6 61 -0.1 31.8
23:35 1016 30 845 24.95 7 44.6 60 -0.2 31.7
23:40 1016 30 845 24.95 7 44.6 60 -0.2 31.6
23:45 1016 30 845 24.95 6.8 44.2 61 -0.3 31.5
23:50 1016 30 845 24.95 6.8 44.3 60 -0.4 31.2
23:55 1016 30 845 24.95 6.8 44.3 59 -0.6 30.9
24:00 1015 29.97 845 24.95 7 44.6 58 -0.6 30.9